Time;durP1;ratioP1;P1;durP2;ratioP2;P2;SDS_P1;SDS_P2;PMS_P1;PMS_P2;Temp;Humidity;BMP_temperature;BMP_pressure;BME280_temperature;BME280_humidity;BME280_pressure;Samples;Min_cycle;Max_cycle;Signal;HPM_P1;HPM_P2
2022/04/10 00:01:51;;;;;;;21.15;11.83;;;;;;;11.15;100.00;99825.87;1766865;81;21066;-72
2022/04/10 00:04:19;;;;;;;20.55;11.73;;;;;;;11.13;100.00;99825.14;1766594;80;21082;-71
2022/04/10 00:06:48;;;;;;;22.98;11.73;;;;;;;11.16;100.00;99827.55;1766646;80;21137;-72
2022/04/10 00:09:15;;;;;;;24.95;12.55;;;;;;;11.05;100.00;99828.17;1768090;79;21087;-71
2022/04/10 00:11:44;;;;;;;22.70;12.45;;;;;;;11.03;100.00;99835.16;1789604;79;21070;-70
2022/04/10 00:14:13;;;;;;;25.80;14.07;;;;;;;11.05;100.00;99838.48;1789984;79;21042;-68
2022/04/10 00:16:42;;;;;;;26.30;14.50;;;;;;;10.95;100.00;99851.04;1789982;79;21558;-71
2022/04/10 00:19:11;;;;;;;26.07;13.95;;;;;;;10.95;100.00;99836.88;1789466;80;21098;-71
2022/04/10 00:21:39;;;;;;;26.17;14.50;;;;;;;10.94;100.00;99830.52;1789587;80;21068;-72
2022/04/10 00:24:08;;;;;;;26.48;14.80;;;;;;;10.93;100.00;99829.70;1789692;79;21031;-71
2022/04/10 00:26:37;;;;;;;32.83;15.80;;;;;;;10.89;100.00;99832.08;1789390;80;21097;-72
2022/04/10 00:29:06;;;;;;;30.15;16.57;;;;;;;10.94;100.00;99828.77;1789482;80;21101;-72
2022/04/10 00:31:34;;;;;;;31.35;17.10;;;;;;;11.03;100.00;99826.14;1789752;79;21031;-71
2022/04/10 00:34:01;;;;;;;36.20;18.77;;;;;;;11.02;100.00;99824.00;1789800;79;21002;-71
2022/04/10 00:36:29;;;;;;;33.73;18.95;;;;;;;11.02;100.00;99815.45;1789634;80;21074;-71
2022/04/10 00:38:56;;;;;;;33.23;17.80;;;;;;;10.99;100.00;99804.88;1785031;79;21093;-70
2022/04/10 00:41:24;;;;;;;32.53;16.30;;;;;;;11.06;100.00;99810.97;1768277;81;21565;-72
2022/04/10 00:44:11;;;;;;;28.87;15.93;;;;;;;11.12;100.00;99815.77;1768361;80;21050;-70
2022/04/10 00:46:39;;;;;;;27.25;14.93;;;;;;;11.01;100.00;99808.20;1727648;82;21003;-70
2022/04/10 00:49:06;;;;;;;30.23;15.53;;;;;;;11.06;100.00;99804.53;1768400;80;21010;-71
2022/04/10 00:51:41;;;;;;;24.98;14.47;;;;;;;11.01;100.00;99800.47;1768527;80;21030;-72
2022/04/10 00:54:26;;;;;;;27.22;15.48;;;;;;;10.98;100.00;99799.34;1768372;80;21054;-71
2022/04/10 00:56:55;;;;;;;26.45;14.90;;;;;;;11.06;100.00;99796.80;1754537;81;21027;-72
2022/04/10 00:59:25;;;;;;;32.90;14.83;;;;;;;10.99;100.00;99801.02;1768228;81;21041;-72
2022/04/10 01:01:53;;;;;;;27.75;14.53;;;;;;;11.02;100.00;99787.95;1768474;81;21086;-72
2022/04/10 01:04:21;;;;;;;26.95;13.88;;;;;;;10.98;100.00;99790.80;1768111;81;21054;-71
2022/04/10 01:06:52;;;;;;;32.13;16.07;;;;;;;11.07;100.00;99780.42;1754894;81;21122;-72
2022/04/10 01:09:20;;;;;;;29.82;14.68;;;;;;;11.06;100.00;99777.48;1768451;81;21577;-70
2022/04/10 01:11:49;;;;;;;29.60;14.60;;;;;;;10.95;100.00;99784.09;1768545;80;21034;-72
2022/04/10 01:14:18;;;;;;;29.80;15.20;;;;;;;10.90;100.00;99792.52;1727803;82;21012;-70
2022/04/10 01:16:47;;;;;;;30.17;14.83;;;;;;;10.96;100.00;99796.03;1768411;80;21113;-71
2022/04/10 01:19:18;;;;;;;30.05;14.98;;;;;;;10.89;100.00;99810.63;1755084;80;21062;-71
2022/04/10 01:21:50;;;;;;;31.12;15.53;;;;;;;10.97;100.00;99813.62;1768427;81;21479;-73
2022/04/10 01:24:19;;;;;;;29.95;15.38;;;;;;;10.97;100.00;99814.91;1738058;81;21034;-71
2022/04/10 01:26:47;;;;;;;27.98;14.87;;;;;;;10.91;100.00;99815.23;1754479;80;21130;-71
2022/04/10 01:29:17;;;;;;;32.13;15.58;;;;;;;10.96;100.00;99817.09;1744140;81;21060;-71
2022/04/10 01:31:47;;;;;;;28.90;15.08;;;;;;;10.93;100.00;99808.24;1736299;81;21004;-72
2022/04/10 01:34:17;;;;;;;31.15;14.60;;;;;;;10.93;100.00;99805.67;1754755;80;20995;-70
2022/04/10 01:36:46;;;;;;;28.57;14.70;;;;;;;10.97;100.00;99797.70;1755065;81;21062;-70
2022/04/10 01:39:16;;;;;;;28.85;15.08;;;;;;;11.02;100.00;99791.81;1744339;80;21034;-72
2022/04/10 01:41:50;;;;;;;28.27;14.75;;;;;;;11.09;100.00;99783.73;1723491;82;21043;-71
2022/04/10 01:44:15;;;;;;;34.65;15.55;;;;;;;11.03;100.00;99784.94;1722905;82;21543;-71
2022/04/10 01:46:42;;;;;;;28.50;14.45;;;;;;;10.89;100.00;99786.16;1723722;83;21031;-71
2022/04/10 01:49:11;;;;;;;24.50;13.88;;;;;;;10.97;100.00;99787.87;1723693;83;21039;-72
2022/04/10 01:51:40;;;;;;;27.87;14.90;;;;;;;10.89;100.00;99792.16;1723421;82;21027;-72
2022/04/10 01:54:08;;;;;;;25.62;15.18;;;;;;;10.94;100.00;99796.58;1723775;83;21051;-72
2022/04/10 01:56:35;;;;;;;27.32;14.07;;;;;;;10.97;100.00;99782.25;1723636;83;21083;-72
2022/04/10 01:59:05;;;;;;;29.80;14.50;;;;;;;10.90;100.00;99791.23;1723425;83;21051;-70
2022/04/10 02:01:32;;;;;;;26.95;14.90;;;;;;;10.94;100.00;99779.02;1723249;82;21019;-72
2022/04/10 02:03:59;;;;;;;29.37;14.90;;;;;;;10.91;100.00;99785.17;1723440;83;21074;-71
2022/04/10 02:06:27;;;;;;;27.25;14.05;;;;;;;10.89;100.00;99781.01;1723234;83;21075;-71
2022/04/10 02:08:55;;;;;;;26.68;14.43;;;;;;;10.86;100.00;99769.15;1723280;83;21051;-72
2022/04/10 02:11:23;;;;;;;32.53;14.90;;;;;;;10.79;100.00;99769.14;1705106;82;21094;-71
2022/04/10 02:13:52;;;;;;;29.15;14.53;;;;;;;10.82;100.00;99759.47;1723514;83;21543;-72
2022/04/10 02:16:21;;;;;;;29.10;14.78;;;;;;;10.77;100.00;99763.25;1723873;82;21117;-71
2022/04/10 02:18:49;;;;;;;32.90;14.30;;;;;;;10.72;100.00;99770.39;1723508;82;21129;-71
2022/04/10 02:21:18;;;;;;;26.65;14.00;;;;;;;10.71;100.00;99770.03;1724070;83;21055;-70
2022/04/10 02:23:48;;;;;;;28.55;13.85;;;;;;;10.70;100.00;99774.80;1726347;82;21569;-71
2022/04/10 02:26:16;;;;;;;28.45;14.47;;;;;;;10.68;100.00;99774.05;1725973;83;21026;-71
2022/04/10 02:28:45;;;;;;;26.62;13.93;;;;;;;10.62;100.00;99773.50;1704661;82;21077;-71
2022/04/10 02:31:13;;;;;;;23.87;14.25;;;;;;;10.61;100.00;99774.40;1710793;82;21072;-70
2022/04/10 02:33:42;;;;;;;26.42;13.98;;;;;;;10.60;100.00;99786.91;1710931;82;21541;-71
2022/04/10 02:36:10;;;;;;;29.60;14.60;;;;;;;10.57;100.00;99787.07;1710765;82;21027;-71
2022/04/10 02:38:39;;;;;;;28.60;14.55;;;;;;;10.50;100.00;99787.48;1710914;82;20995;-70
2022/04/10 02:41:06;;;;;;;30.20;15.00;;;;;;;10.47;100.00;99785.92;1710593;83;21041;-71
2022/04/10 02:43:34;;;;;;;32.50;14.55;;;;;;;10.47;100.00;99787.67;1710765;83;21519;-72
2022/04/10 02:46:03;;;;;;;28.25;14.70;;;;;;;10.44;100.00;99786.08;1709048;82;21025;-71
2022/04/10 02:48:30;;;;;;;28.02;14.68;;;;;;;10.42;100.00;99782.75;1710624;82;21011;-71
2022/04/10 02:50:58;;;;;;;29.10;15.35;;;;;;;10.43;100.00;99789.58;1711043;84;21071;-70
2022/04/10 02:53:27;;;;;;;31.73;15.10;;;;;;;10.41;100.00;99790.94;1710599;82;21064;-71
2022/04/10 02:55:54;;;;;;;30.45;15.15;;;;;;;10.46;100.00;99787.28;1710858;82;20999;-71
2022/04/10 02:58:24;;;;;;;29.67;15.28;;;;;;;10.40;100.00;99794.44;1707712;84;21534;-71
2022/04/10 03:00:52;;;;;;;27.27;15.48;;;;;;;10.36;100.00;99796.81;1710770;84;21030;-70
2022/04/10 03:03:21;;;;;;;29.65;15.30;;;;;;;10.39;100.00;99796.63;1707103;83;21108;-71
2022/04/10 03:05:50;;;;;;;28.17;15.03;;;;;;;10.34;100.00;99787.49;1710681;83;21042;-71
2022/04/10 03:08:19;;;;;;;32.80;15.68;;;;;;;10.33;100.00;99794.39;1710556;82;21125;-70
2022/04/10 03:10:48;;;;;;;30.35;14.95;;;;;;;10.32;100.00;99790.17;1710919;83;21000;-71
2022/04/10 03:13:16;;;;;;;31.70;15.93;;;;;;;10.33;100.00;99793.11;1710836;83;21640;-71
2022/04/10 03:15:45;;;;;;;27.37;15.45;;;;;;;10.32;100.00;99788.03;1710922;82;21034;-71
2022/04/10 03:18:14;;;;;;;31.50;16.12;;;;;;;10.36;100.00;99792.95;1710661;82;21018;-67
2022/04/10 03:20:45;;;;;;;27.48;16.20;;;;;;;10.33;100.00;99790.53;1710770;82;21068;-71
2022/04/10 03:23:12;;;;;;;34.38;16.35;;;;;;;10.36;100.00;99795.95;1710756;83;21063;-69
2022/04/10 03:25:40;;;;;;;33.28;15.40;;;;;;;10.43;100.00;99796.01;1706889;83;21045;-70
2022/04/10 03:28:08;;;;;;;31.80;15.93;;;;;;;10.48;100.00;99794.46;1710883;83;21038;-71
2022/04/10 03:30:36;;;;;;;29.42;15.32;;;;;;;10.59;100.00;99796.81;1740705;81;21504;-70
2022/04/10 03:33:04;;;;;;;28.40;15.98;;;;;;;10.73;100.00;99804.24;1741732;81;20999;-71
2022/04/10 03:35:32;;;;;;;30.23;15.38;;;;;;;10.75;100.00;99808.84;1742077;81;20996;-71
2022/04/10 03:38:00;;;;;;;33.48;15.18;;;;;;;10.81;100.00;99814.94;1742232;81;21029;-71
2022/04/10 03:40:28;;;;;;;29.23;15.20;;;;;;;10.94;100.00;99809.91;1742114;82;21033;-71
2022/04/10 03:42:56;;;;;;;30.60;14.60;;;;;;;11.06;100.00;99816.94;1742086;82;21096;-70
2022/04/10 03:45:26;;;;;;;32.17;15.13;;;;;;;11.22;100.00;99829.31;1741872;81;21089;-71
2022/04/10 03:47:55;;;;;;;27.30;15.13;;;;;;;11.24;100.00;99833.09;1742094;81;21036;-71
2022/04/10 03:50:25;;;;;;;30.15;14.73;;;;;;;11.38;100.00;99836.98;1741905;81;21042;-71
2022/04/10 03:52:53;;;;;;;32.08;15.85;;;;;;;11.26;100.00;99840.74;1742437;81;21525;-71
2022/04/10 03:55:21;;;;;;;27.98;14.80;;;;;;;11.37;100.00;99850.77;1742090;81;21062;-71
2022/04/10 03:57:50;;;;;;;32.73;15.25;;;;;;;11.42;100.00;99840.22;1741865;81;22301;-69
2022/04/10 04:00:20;;;;;;;30.35;14.63;;;;;;;11.42;100.00;99838.94;1741872;82;21537;-70
2022/04/10 04:02:49;;;;;;;31.80;15.88;;;;;;;11.48;100.00;99845.48;1741776;81;21522;-71
2022/04/10 04:05:18;;;;;;;31.23;15.43;;;;;;;11.55;100.00;99849.34;1741661;81;21081;-70
2022/04/10 04:07:46;;;;;;;34.98;15.98;;;;;;;11.56;100.00;99857.47;1741886;81;21057;-71
2022/04/10 04:10:14;;;;;;;32.60;16.07;;;;;;;11.63;100.00;99857.45;1741918;81;21533;-70
2022/04/10 04:12:42;;;;;;;31.37;15.80;;;;;;;11.75;100.00;99858.48;1742213;81;21049;-71
2022/04/10 04:15:11;;;;;;;36.85;15.95;;;;;;;11.74;100.00;99860.24;1742004;81;21513;-71
2022/04/10 04:17:40;;;;;;;31.30;15.30;;;;;;;11.82;100.00;99860.61;1741428;81;21080;-71
2022/04/10 04:20:09;;;;;;;30.90;15.48;;;;;;;11.86;100.00;99853.53;1741106;81;21081;-72
2022/04/10 04:22:37;;;;;;;37.25;15.05;;;;;;;11.94;100.00;99859.52;1741978;81;21041;-72
2022/04/10 04:25:07;;;;;;;36.63;15.25;;;;;;;11.88;100.00;99866.31;1742302;81;21093;-70
2022/04/10 04:27:36;;;;;;;28.38;14.25;;;;;;;11.94;100.00;99862.11;1725516;82;21553;-72
2022/04/10 04:30:05;;;;;;;29.18;14.63;;;;;;;11.99;100.00;99872.52;1748051;80;21079;-71
2022/04/10 04:32:33;;;;;;;33.40;14.95;;;;;;;11.91;100.00;99868.75;1735165;82;21078;-71
2022/04/10 04:35:02;;;;;;;31.65;14.70;;;;;;;11.78;100.00;99869.89;1698709;84;21073;-70
2022/04/10 04:37:31;;;;;;;30.17;15.78;;;;;;;11.97;100.00;99873.55;1752309;81;21487;-70
2022/04/10 04:39:59;;;;;;;32.03;13.80;;;;;;;12.05;100.00;99880.36;1751929;80;21062;-71
2022/04/10 04:42:27;;;;;;;26.85;13.70;;;;;;;12.19;100.00;99881.64;1751955;81;21051;-71
2022/04/10 04:44:54;;;;;;;26.90;13.83;;;;;;;12.26;100.00;99886.42;1752095;82;21519;-70
2022/04/10 04:47:23;;;;;;;30.85;13.05;;;;;;;12.27;100.00;99889.39;1734013;82;21047;-71
2022/04/10 04:49:52;;;;;;;32.05;14.23;;;;;;;12.25;100.00;99890.77;1735213;82;21046;-71
2022/04/10 04:52:20;;;;;;;25.50;13.50;;;;;;;12.34;100.00;99881.16;1700790;83;20981;-71
2022/04/10 04:54:48;;;;;;;27.32;13.10;;;;;;;12.35;100.00;99883.30;1761403;80;21011;-70
2022/04/10 04:57:16;;;;;;;26.62;13.00;;;;;;;12.28;100.00;99888.45;1736560;81;21751;-70
2022/04/10 04:59:45;;;;;;;27.87;13.10;;;;;;;12.49;100.00;99885.86;1760669;80;21046;-72
2022/04/10 05:02:12;;;;;;;26.68;13.38;;;;;;;12.51;100.00;99886.59;1760877;80;21015;-67
2022/04/10 05:04:42;;;;;;;24.35;12.25;;;;;;;12.61;100.00;99888.11;1760643;80;21508;-71
2022/04/10 05:07:12;;;;;;;27.35;12.73;;;;;;;12.86;100.00;99891.76;1761215;80;21437;-71
2022/04/10 05:09:40;;;;;;;21.82;12.65;;;;;;;12.78;100.00;99890.94;1760940;80;21012;-71
2022/04/10 05:12:10;;;;;;;24.30;11.65;;;;;;;12.95;100.00;99889.86;1760923;80;21015;-71
2022/04/10 05:14:39;;;;;;;26.35;12.70;;;;;;;12.98;100.00;99890.97;1751698;80;21019;-71
2022/04/10 05:17:09;;;;;;;22.77;11.10;;;;;;;13.11;100.00;99896.17;1751417;80;21067;-71
2022/04/10 05:19:39;;;;;;;25.60;11.12;;;;;;;13.27;100.00;99891.66;1751673;80;20985;-71
2022/04/10 05:22:08;;;;;;;23.80;10.80;;;;;;;13.35;100.00;99895.90;1751720;80;21478;-71
2022/04/10 05:24:36;;;;;;;24.52;11.08;;;;;;;13.39;100.00;99900.41;1750137;81;21493;-71
2022/04/10 05:27:05;;;;;;;22.95;11.38;;;;;;;13.50;100.00;99894.53;1751872;81;20969;-72
2022/04/10 05:29:34;;;;;;;21.30;10.18;;;;;;;13.46;100.00;99903.41;1739382;82;21089;-70
2022/04/10 05:32:03;;;;;;;23.35;10.28;;;;;;;13.47;100.00;99900.73;1693248;84;21061;-70
2022/04/10 05:34:30;;;;;;;21.85;10.68;;;;;;;13.38;100.00;99897.00;1711211;84;21118;-71
2022/04/10 05:36:59;;;;;;;21.42;10.15;;;;;;;13.37;100.00;99904.38;1707405;82;21472;-71
2022/04/10 05:39:28;;;;;;;22.02;10.03;;;;;;;13.36;100.00;99900.59;1709338;83;21491;-71
2022/04/10 05:41:55;;;;;;;20.08;10.18;;;;;;;13.33;100.00;99899.05;1711128;82;21041;-71
2022/04/10 05:44:24;;;;;;;20.43;9.93;;;;;;;13.48;100.00;99902.84;1710949;82;21077;-71
2022/04/10 05:46:53;;;;;;;17.73;9.83;;;;;;;13.52;100.00;99901.72;1711178;83;21011;-71
2022/04/10 05:49:23;;;;;;;19.77;9.88;;;;;;;13.57;100.00;99905.66;1711160;82;21093;-70
2022/04/10 05:51:51;;;;;;;20.68;9.30;;;;;;;13.57;100.00;99906.95;1725699;82;21569;-72
2022/04/10 05:54:20;;;;;;;22.82;10.30;;;;;;;13.68;100.00;99899.77;1726126;82;21057;-71
2022/04/10 05:56:48;;;;;;;23.40;10.15;;;;;;;13.90;100.00;99900.92;1746805;81;21092;-71
2022/04/10 05:59:16;;;;;;;19.23;9.58;;;;;;;13.98;100.00;99903.34;1746425;81;21580;-72
2022/04/10 06:01:44;;;;;;;24.05;9.95;;;;;;;14.16;100.00;99901.73;1746795;81;21050;-70
2022/04/10 06:04:12;;;;;;;21.02;10.00;;;;;;;14.52;100.00;99911.30;1711176;83;21458;-71
2022/04/10 06:06:40;;;;;;;17.82;9.43;;;;;;;14.62;100.00;99905.87;1710767;82;21061;-71
2022/04/10 06:09:09;;;;;;;15.80;8.58;;;;;;;14.83;100.00;99900.91;1746144;81;21015;-71
2022/04/10 06:11:37;;;;;;;18.17;8.75;;;;;;;14.99;100.00;99905.00;1711087;82;21061;-70
2022/04/10 06:14:08;;;;;;;18.73;9.53;;;;;;;14.99;100.00;99907.59;1711146;83;21041;-71
2022/04/10 06:16:37;;;;;;;19.85;9.60;;;;;;;15.11;100.00;99904.11;1711006;83;21042;-71
2022/04/10 06:19:05;;;;;;;19.00;8.65;;;;;;;15.14;100.00;99902.58;1711293;83;21062;-72
2022/04/10 06:21:34;;;;;;;22.02;9.25;;;;;;;15.16;100.00;99906.36;1711039;82;21014;-71
2022/04/10 06:24:02;;;;;;;21.62;8.90;;;;;;;15.27;100.00;99902.98;1711050;83;21030;-72
2022/04/10 06:26:31;;;;;;;20.20;8.35;;;;;;;15.38;100.00;99905.14;1708031;83;21006;-70
2022/04/10 06:28:59;;;;;;;14.87;8.55;;;;;;;15.47;100.00;99906.25;1710920;82;21039;-70
2022/04/10 06:31:30;;;;;;;13.35;8.18;;;;;;;15.43;100.00;99913.91;1742980;82;21227;-71
2022/04/10 06:33:57;;;;;;;19.00;8.65;;;;;;;15.63;100.00;99913.25;1764338;80;21015;-70
2022/04/10 06:36:25;;;;;;;15.53;8.25;;;;;;;15.70;100.00;99913.61;1764367;80;20985;-70
2022/04/10 06:38:52;;;;;;;13.40;7.20;;;;;;;15.85;100.00;99911.64;1764191;80;21049;-71
2022/04/10 06:41:23;;;;;;;14.15;8.13;;;;;;;15.96;100.00;99916.05;1764928;80;21042;-71
2022/04/10 06:43:51;;;;;;;12.73;7.40;;;;;;;15.98;100.00;99916.27;1764547;81;21028;-71
2022/04/10 06:46:36;;;;;;;16.00;8.38;;;;;;;15.95;100.00;99922.16;1743920;82;21037;-71
2022/04/10 06:49:05;;;;;;;17.35;8.25;;;;;;;15.93;100.00;99921.45;1743227;82;21549;-71
2022/04/10 06:51:33;;;;;;;20.57;8.43;;;;;;;16.07;100.00;99919.11;1722979;82;20995;-71
2022/04/10 06:54:01;;;;;;;20.50;8.13;;;;;;;16.27;100.00;99915.80;1744764;82;21011;-71
2022/04/10 06:56:31;;;;;;;18.90;8.05;;;;;;;16.35;98.86;99911.31;1741879;81;20996;-71
2022/04/10 06:58:58;;;;;;;17.25;7.60;;;;;;;16.30;98.77;99909.53;1744664;81;21005;-71
2022/04/10 07:01:26;;;;;;;15.13;7.55;;;;;;;16.46;97.78;99912.59;1764508;81;21044;-71
2022/04/10 07:03:54;;;;;;;17.17;7.60;;;;;;;16.49;95.86;99918.05;1763333;79;21021;-71
2022/04/10 07:06:23;;;;;;;16.82;7.22;;;;;;;16.62;96.89;99917.41;1744380;82;21043;-71
2022/04/10 07:08:52;;;;;;;15.48;7.58;;;;;;;16.69;95.57;99913.88;1766403;80;21046;-71
2022/04/10 07:11:22;;;;;;;15.90;7.45;;;;;;;16.85;95.14;99923.89;1744546;81;21047;-71
2022/04/10 07:13:51;;;;;;;17.30;7.35;;;;;;;17.00;94.54;99920.08;1766369;81;21550;-71
2022/04/10 07:16:19;;;;;;;16.05;7.03;;;;;;;17.09;93.08;99927.15;1766197;80;21034;-71
2022/04/10 07:18:50;;;;;;;16.45;7.42;;;;;;;17.07;93.20;99929.50;1765963;80;21543;-72
2022/04/10 07:23:41;;;;;;;14.25;6.95;;;;;;;17.28;93.18;99929.55;1745122;81;21047;-71
2022/04/10 07:23:48;;;;;;;14.47;7.15;;;;;;;17.25;92.08;99933.20;1741451;81;21079;-71
2022/04/10 07:26:18;;;;;;;15.50;7.33;;;;;;;17.29;92.37;99929.89;1744758;81;21078;-71
2022/04/10 07:28:48;;;;;;;17.05;6.83;;;;;;;17.48;91.95;99929.20;1744891;81;21614;-71
2022/04/10 07:31:17;;;;;;;16.40;6.97;;;;;;;17.49;90.84;99943.88;1767330;80;21068;-71
2022/04/10 07:33:44;;;;;;;18.75;7.37;;;;;;;17.41;90.01;99941.89;1768555;80;21040;-70
2022/04/10 07:36:16;;;;;;;13.22;6.83;;;;;;;17.41;90.16;99937.51;1767077;80;21556;-71
2022/04/10 07:38:43;;;;;;;15.63;7.20;;;;;;;17.58;90.07;99936.14;1768234;80;21044;-71
2022/04/10 07:41:13;;;;;;;15.98;6.87;;;;;;;17.66;89.03;99942.02;1753078;80;21571;-71
2022/04/10 07:43:42;;;;;;;15.40;7.10;;;;;;;18.06;88.72;99950.41;1766040;80;21062;-71
2022/04/10 07:48:59;;;;;;;14.70;6.70;;;;;;;18.34;86.17;99951.98;1738309;81;21017;-71
2022/04/10 07:51:28;;;;;;;19.23;7.30;;;;;;;18.53;85.88;99961.19;1740816;81;21681;-71
2022/04/10 07:54:04;;;;;;;14.83;6.85;;;;;;;18.46;84.13;99961.36;1753182;80;21024;-71
2022/04/10 07:56:33;;;;;;;15.40;6.80;;;;;;;18.57;84.41;99948.23;1754816;80;21146;-71
2022/04/10 07:59:01;;;;;;;15.13;6.78;;;;;;;18.56;83.42;99957.00;1752648;81;21088;-70
2022/04/10 08:01:30;;;;;;;17.35;6.92;;;;;;;18.65;83.23;99954.06;1753744;80;21059;-70
2022/04/10 08:03:59;;;;;;;16.02;6.50;;;;;;;18.98;82.40;99961.26;1753730;81;21113;-70
2022/04/10 08:06:32;;;;;;;16.90;7.47;;;;;;;19.23;81.58;99947.34;1729743;80;21016;-71
2022/04/10 08:09:00;;;;;;;13.25;6.37;;;;;;;19.35;80.72;99954.06;1754313;81;21596;-70
2022/04/10 08:11:28;;;;;;;14.83;7.12;;;;;;;19.49;80.68;99957.55;1754178;80;21869;-71
2022/04/10 08:13:57;;;;;;;13.28;6.65;;;;;;;19.71;79.72;99947.33;1754022;80;21062;-71
2022/04/10 08:16:26;;;;;;;14.07;6.50;;;;;;;19.58;79.32;99957.19;1754254;80;21038;-71
2022/04/10 08:18:54;;;;;;;15.58;7.30;;;;;;;19.57;80.33;99951.64;1754435;80;21542;-70
2022/04/10 08:21:23;;;;;;;12.85;6.67;;;;;;;19.86;79.71;99947.70;1754322;80;21820;-70
2022/04/10 08:23:53;;;;;;;15.50;6.90;;;;;;;19.97;77.47;99945.39;1754202;80;21083;-70
2022/04/10 08:26:20;;;;;;;14.70;6.90;;;;;;;20.05;77.60;99949.42;1754045;81;21020;-68
2022/04/10 08:28:49;;;;;;;17.37;6.72;;;;;;;20.18;77.29;99940.79;1754015;80;21115;-71
2022/04/10 08:31:17;;;;;;;14.83;6.67;;;;;;;20.02;77.21;99940.58;1725103;82;21101;-70
2022/04/10 08:33:46;;;;;;;17.37;6.30;;;;;;;20.28;76.82;99933.41;1710481;82;21101;-71
2022/04/10 08:36:14;;;;;;;13.53;6.78;;;;;;;20.25;76.56;99928.45;1710627;82;21001;-71
2022/04/10 08:38:41;;;;;;;15.08;6.85;;;;;;;20.28;76.63;99924.26;1710378;82;21620;-71
2022/04/10 08:41:10;;;;;;;16.23;6.78;;;;;;;20.52;76.37;99919.77;1710176;82;21014;-69
2022/04/10 08:43:41;;;;;;;14.00;6.80;;;;;;;20.75;74.22;99924.16;1746381;81;21053;-70
2022/04/10 08:46:12;;;;;;;13.88;6.75;;;;;;;20.86;74.07;99923.92;1746275;81;21491;-70
2022/04/10 08:48:40;;;;;;;14.73;6.58;;;;;;;21.04;73.60;99927.05;1746394;81;20994;-70
2022/04/10 08:51:29;;;;;;;13.53;6.80;;;;;;;21.00;72.20;99919.98;1742471;81;21100;-70
2022/04/10 08:53:57;;;;;;;16.02;6.78;;;;;;;21.01;73.32;99918.53;1746466;81;20999;-69
2022/04/10 08:56:25;;;;;;;13.58;6.60;;;;;;;21.47;71.91;99917.15;1747069;82;21053;-70
2022/04/10 08:58:53;;;;;;;14.47;6.58;;;;;;;21.29;70.71;99924.14;1711294;83;21073;-71
2022/04/10 09:01:22;;;;;;;14.75;6.53;;;;;;;21.43;71.66;99914.97;1711227;83;21053;-70
2022/04/10 09:03:49;;;;;;;12.37;5.90;;;;;;;21.41;70.87;99919.00;1711195;83;21049;-71
2022/04/10 09:06:16;;;;;;;15.30;6.78;;;;;;;21.52;69.54;99912.26;1711019;83;21053;-69
2022/04/10 09:08:45;;;;;;;18.52;7.45;;;;;;;21.47;69.50;99911.06;1711378;83;21002;-71
2022/04/10 09:11:13;;;;;;;14.58;6.08;;;;;;;21.21;70.66;99913.15;1711267;82;21007;-70
2022/04/10 09:13:49;;;;;;;14.90;6.80;;;;;;;21.36;70.91;99915.55;1711462;83;21573;-71
2022/04/10 09:16:18;;;;;;;;;;;;;;;21.40;69.56;99910.83;1713907;84;21078;-71
2022/04/10 09:18:54;;;;;;;18.17;7.47;;;;;;;21.50;70.60;99910.77;1707958;83;20180;-71
2022/04/10 09:21:32;;;;;;;18.20;7.40;;;;;;;21.53;70.52;99906.06;1743478;81;21095;-71
2022/04/10 09:24:09;;;;;;;15.25;7.20;;;;;;;21.70;70.07;99908.78;1747218;81;21084;-70
2022/04/10 09:26:54;;;;;;;14.07;7.42;;;;;;;21.83;69.47;99907.86;1747288;81;21532;-69
2022/04/10 09:29:24;;;;;;;15.05;7.22;;;;;;;21.75;69.83;99907.31;1728089;81;21594;-70
2022/04/10 09:31:54;;;;;;;14.00;7.42;;;;;;;21.90;68.48;99908.08;1743429;81;21036;-71
2022/04/10 09:34:25;;;;;;;17.12;7.30;;;;;;;21.78;69.15;99910.95;1742670;81;20947;-70
2022/04/10 09:37:01;;;;;;;13.95;7.30;;;;;;;21.78;69.50;99907.52;1742192;81;21052;-70
2022/04/10 09:39:37;;;;;;;15.25;7.60;;;;;;;21.88;68.67;99906.08;1742598;81;21012;-70
2022/04/10 09:42:08;;;;;;;19.40;7.75;;;;;;;22.02;69.26;99909.45;1739602;82;21001;-70
2022/04/10 09:44:38;;;;;;;18.92;7.92;;;;;;;22.06;68.69;99909.47;1742633;81;21000;-70
2022/04/10 09:47:10;;;;;;;16.12;7.55;;;;;;;22.06;67.83;99912.09;1742778;81;21090;-70
2022/04/10 09:49:41;;;;;;;14.63;7.45;;;;;;;21.86;67.55;99908.03;1742500;81;22127;-70
2022/04/10 09:52:16;;;;;;;14.35;7.53;;;;;;;21.72;68.18;99916.81;1742373;81;21039;-70
2022/04/10 09:54:47;;;;;;;;;;;;;;;21.68;68.58;99914.17;1745082;81;20993;-71
2022/04/10 09:57:17;;;;;;;17.42;8.13;;;;;;;21.63;69.31;99907.25;1742218;82;20107;-71
2022/04/10 09:59:49;;;;;;;15.43;7.67;;;;;;;21.85;69.16;99916.88;1742585;81;21057;-71
2022/04/10 10:02:21;;;;;;;16.02;7.33;;;;;;;21.49;67.77;99913.05;1742289;82;21068;-69
2022/04/10 10:04:50;;;;;;;17.95;7.00;;;;;;;21.30;68.67;99910.09;1742295;81;21073;-70
2022/04/10 10:07:20;;;;;;;15.88;7.03;;;;;;;21.19;69.86;99915.91;1742159;82;21088;-70
2022/04/10 10:09:49;;;;;;;19.07;7.42;;;;;;;21.17;69.46;99918.34;1741989;82;21029;-70
2022/04/10 10:12:17;;;;;;;12.98;7.03;;;;;;;21.37;70.21;99925.05;1742068;81;21096;-70
2022/04/10 10:14:45;;;;;;;12.07;7.08;;;;;;;21.50;69.06;99921.25;1742539;82;21049;-69
2022/04/10 10:17:15;;;;;;;20.68;7.00;;;;;;;22.00;68.21;99926.64;1704145;84;21569;-69
2022/04/10 10:19:44;;;;;;;12.45;7.20;;;;;;;22.20;66.38;99933.78;1697618;84;21034;-70
2022/04/10 10:22:15;;;;;;;15.05;7.05;;;;;;;22.10;65.37;99928.30;1704285;84;21054;-70
2022/04/10 10:24:55;;;;;;;18.67;6.90;;;;;;;22.12;65.87;99924.58;1742312;82;21022;-71
2022/04/10 10:27:49;;;;;;;12.37;6.75;;;;;;;22.26;65.46;99917.92;1742264;81;21076;-70
2022/04/10 10:30:42;;;;;;;13.30;7.20;;;;;;;22.32;65.19;99925.66;1678716;85;21030;-71
2022/04/10 10:33:14;;;;;;;14.85;6.72;;;;;;;22.26;64.08;99924.48;1732995;81;21627;-69
2022/04/10 10:35:45;;;;;;;12.75;6.72;;;;;;;22.14;65.62;99923.08;1742287;82;21026;-70
2022/04/10 10:38:30;;;;;;;17.55;6.80;;;;;;;22.34;64.91;99921.07;1739458;82;21064;-71
2022/04/10 10:41:18;;;;;;;18.35;7.15;;;;;;;22.43;63.76;99920.13;1742413;82;21083;-70
2022/04/10 10:43:48;;;;;;;15.72;6.97;;;;;;;22.36;63.67;99920.42;1742630;81;21037;-70
2022/04/10 10:46:26;;;;;;;14.35;6.60;;;;;;;21.62;65.00;99932.30;1742480;81;21041;-71
2022/04/10 10:49:16;;;;;;;17.30;6.62;;;;;;;21.75;65.52;99929.59;1742750;82;21057;-71
2022/04/10 10:51:54;;;;;;;15.10;6.50;;;;;;;21.54;64.79;99925.20;1742560;82;21494;-71
2022/04/10 10:54:33;;;;;;;13.65;6.58;;;;;;;21.63;64.64;99930.81;1741751;81;21045;-71
2022/04/10 10:57:42;;;;;;;14.47;6.35;;;;;;;21.50;64.92;99931.73;1742081;82;21120;-70
2022/04/10 11:00:20;;;;;;;14.47;6.50;;;;;;;21.35;65.46;99932.24;1742148;82;21089;-69
2022/04/10 11:02:52;;;;;;;13.93;6.65;;;;;;;21.58;64.80;99920.81;1742256;82;21076;-69
2022/04/10 11:05:29;;;;;;;13.70;5.97;;;;;;;21.87;63.07;99926.23;1742042;81;21446;-70
2022/04/10 11:08:06;;;;;;;10.80;5.87;;;;;;;22.12;62.50;99920.64;1725580;82;21072;-70
2022/04/10 11:10:53;;;;;;;14.63;5.62;;;;;;;22.23;62.12;99914.29;1742179;82;21061;-70
2022/04/10 11:13:22;;;;;;;15.30;5.70;;;;;;;22.13;62.44;99917.03;1742143;82;21025;-69
2022/04/10 11:15:53;;;;;;;15.13;5.47;;;;;;;22.32;61.60;99911.23;1742061;82;21049;-69
2022/04/10 11:18:35;;;;;;;11.60;5.87;;;;;;;22.36;61.17;99913.86;1742459;82;21073;-70
2022/04/10 11:21:20;;;;;;;12.23;5.70;;;;;;;22.36;61.17;99913.86;1742196;80;21958;-70
2022/04/10 11:23:49;;;;;;;14.68;5.72;;;;;;;22.13;61.36;99907.03;1742315;82;21052;-70
2022/04/10 11:26:19;;;;;;;15.50;5.80;;;;;;;22.24;60.51;99908.08;1742179;82;21065;-69
2022/04/10 11:29:07;;;;;;;12.40;6.00;;;;;;;22.34;60.25;99904.03;1742171;82;21037;-70
2022/04/10 11:31:44;;;;;;;12.60;5.67;;;;;;;22.34;60.35;99900.94;1744082;81;21169;-70
2022/04/10 11:34:21;;;;;;;13.70;5.85;;;;;;;22.54;60.18;99908.02;1747234;82;21051;-70